LFBO/TLS METAR and TAF weather

Enter ICAO airport designator
Station Type Date Time Source
LFBO METAR 2021/02/25 15:30 UTC NOAA

LFBO 251530Z AUTO 16009KT CAVOK 15/09 Q1029 NOSIG


Station Type Date Time Source
LFBO Decoded METAR 2021/02/25 15:30 UTC NOAA

Toulouse / Blagnac, France (LFBO) 43-38N 001-22E 153M
Feb 25, 2021 - 10:30 AM EST / 2021.02.25 1530 UTC
Wind: from the SSE (160 degrees) at 10 MPH (9 KT):0
Visibility: greater than 7 mile(s):0
Temperature: 59 F (15 C)
Dew Point: 48 F (9 C)
Relative Humidity: 67%
Pressure (altimeter): 30.39 in. Hg (1029 hPa)
ob: LFBO 251530Z AUTO 16009KT CAVOK 15/09 Q1029 NOSIG
cycle: 15

Station Type Date Time Source
LFBO TAF 2021/02/25 12:22 UTC NOAA

TAF LFBO 251100Z 2512/2618 14012KT 9999 SCT025
BECMG 2522/2601 4000 BR OVC004
TEMPO 2600/2612 2000 OVC002 PROB40 2603/2609 0700 FG VV///
BECMG 2613/2615 8000 NSW BKN006
BECMG 2616/2618 BKN016

Example: see airport list